Time;durP1;ratioP1;P1;durP2;ratioP2;P2;SDS_P1;SDS_P2;PMS_P1;PMS_P2;Temp;Humidity;BMP_temperature;BMP_pressure;BME280_temperature;BME280_humidity;BME280_pressure;Samples;Min_cycle;Max_cycle;Signal;HPM_P1;HPM_P2
2022/05/11 00:00:49;;;;;;;5.67;1.80;;;;;;;9.08;44.46;100563.23;1757088;81;21547;-57
2022/05/11 00:03:20;;;;;;;3.47;1.57;;;;;;;9.03;44.62;100558.31;1757070;82;21217;-57
2022/05/11 00:05:50;;;;;;;3.70;1.70;;;;;;;8.99;44.71;100561.08;1757195;81;21202;-56
2022/05/11 00:08:20;;;;;;;5.97;1.75;;;;;;;8.97;44.86;100566.39;1757103;81;21151;-55
2022/05/11 00:10:49;;;;;;;4.83;1.70;;;;;;;8.97;44.92;100560.41;1757237;81;21111;-57
2022/05/11 00:13:18;;;;;;;3.52;1.77;;;;;;;8.96;45.04;100564.18;1757024;82;21612;-57
2022/05/11 00:15:47;;;;;;;4.87;1.80;;;;;;;8.92;45.25;100563.36;1757070;82;21154;-58
2022/05/11 00:18:16;;;;;;;4.37;1.70;;;;;;;8.89;45.14;100564.58;1757416;82;21941;-55
2022/05/11 00:20:46;;;;;;;2.95;1.70;;;;;;;8.89;45.26;100560.48;1757255;81;21566;-56
2022/05/11 00:23:14;;;;;;;3.98;1.70;;;;;;;8.85;45.26;100560.00;1757313;82;21578;-55
2022/05/11 00:25:47;;;;;;;5.30;1.90;;;;;;;8.82;45.33;100557.62;1757149;82;22131;-56
2022/05/11 00:28:16;;;;;;;3.80;1.90;;;;;;;8.81;45.50;100563.28;1757012;81;21123;-57
2022/05/11 00:30:45;;;;;;;4.08;1.62;;;;;;;8.81;45.54;100555.08;1756915;82;21231;-56
2022/05/11 00:33:15;;;;;;;4.35;2.08;;;;;;;8.78;45.62;100559.55;1757196;82;21146;-57
2022/05/11 00:35:47;;;;;;;4.97;2.08;;;;;;;8.74;45.82;100565.03;1757296;82;21719;-57
2022/05/11 00:38:18;;;;;;;4.08;1.80;;;;;;;8.69;45.99;100557.91;1757360;82;21127;-58
2022/05/11 00:40:51;;;;;;;5.03;1.55;;;;;;;8.65;46.11;100566.98;1757249;82;21186;-56
2022/05/11 00:43:35;;;;;;;5.75;1.87;;;;;;;8.61;46.18;100560.18;1757293;81;21202;-57
2022/05/11 00:46:18;;;;;;;4.62;1.80;;;;;;;8.54;46.44;100553.22;1757125;80;21313;-57
2022/05/11 00:51:45;;;;;;;5.40;2.20;;;;;;;8.51;46.72;100569.13;1757305;81;21186;-56
2022/05/11 00:54:15;;;;;;;4.90;1.92;;;;;;;8.48;46.86;100562.14;1757182;82;21107;-57
2022/05/11 00:56:52;;;;;;;4.00;2.20;;;;;;;8.47;46.91;100561.80;1707024;84;21186;-57
2022/05/11 00:59:32;;;;;;;3.65;1.77;;;;;;;8.45;47.04;100561.13;1707051;84;21127;-56
2022/05/11 01:02:04;;;;;;;5.03;1.90;;;;;;;8.39;47.17;100563.19;1706950;83;21589;-57
2022/05/11 01:04:36;;;;;;;4.58;1.98;;;;;;;8.35;47.52;100568.67;1707341;84;21154;-57
2022/05/11 01:07:05;;;;;;;2.75;1.75;;;;;;;8.29;47.81;100565.26;1706940;84;21639;-56
2022/05/11 01:09:34;;;;;;;3.37;1.65;;;;;;;8.25;48.00;100564.77;1707033;84;21130;-57
2022/05/11 01:12:04;;;;;;;3.85;1.70;;;;;;;8.23;48.22;100567.34;1706997;84;21151;-57
2022/05/11 01:14:34;;;;;;;4.55;1.80;;;;;;;8.22;48.31;100562.91;1702300;82;21166;-57
2022/05/11 01:17:04;;;;;;;3.17;1.60;;;;;;;8.21;48.42;100557.97;1757270;82;21095;-58
2022/05/11 01:19:36;;;;;;;4.62;1.57;;;;;;;8.24;48.51;100564.43;1757314;82;21154;-57
2022/05/11 01:22:15;;;;;;;3.47;1.52;;;;;;;8.22;48.70;100562.91;1757222;82;21138;-57
2022/05/11 01:24:47;;;;;;;4.40;2.00;;;;;;;8.19;48.90;100564.62;1756962;82;21616;-56
2022/05/11 01:27:39;;;;;;;4.20;2.30;;;;;;;8.12;49.08;100560.40;1757150;82;21146;-57
2022/05/11 01:30:14;;;;;;;5.47;1.90;;;;;;;8.09;49.27;100562.13;1756937;82;21130;-56
2022/05/11 01:32:47;;;;;;;4.15;1.87;;;;;;;8.08;49.36;100559.05;1750010;82;21544;-57
2022/05/11 01:35:37;;;;;;;3.85;2.02;;;;;;;8.06;49.57;100556.17;1743741;82;21155;-58
2022/05/11 01:38:30;;;;;;;3.30;1.80;;;;;;;7.98;49.85;100554.84;1743783;81;21556;-56
2022/05/11 01:41:01;;;;;;;4.53;1.92;;;;;;;7.92;50.06;100562.70;1743778;81;21116;-57
2022/05/11 01:43:34;;;;;;;3.55;1.90;;;;;;;7.91;50.07;100551.45;1743817;82;21606;-58
2022/05/11 01:46:04;;;;;;;3.22;1.80;;;;;;;7.90;50.10;100548.39;1743775;81;21131;-56
2022/05/11 01:48:34;;;;;;;5.87;2.30;;;;;;;7.85;50.21;100554.89;1743908;82;21539;-57
2022/05/11 01:51:03;;;;;;;6.53;1.90;;;;;;;7.79;50.37;100547.89;1743647;82;21202;-57
2022/05/11 01:53:32;;;;;;;5.08;2.10;;;;;;;7.75;50.55;100550.13;1743908;81;21166;-56
2022/05/11 01:56:01;;;;;;;3.25;1.85;;;;;;;7.78;50.72;100551.14;1743671;82;21123;-58
2022/05/11 01:58:30;;;;;;;3.92;2.00;;;;;;;7.75;50.79;100544.67;1743783;82;21118;-57
2022/05/11 02:00:59;;;;;;;4.83;2.42;;;;;;;7.76;50.82;100540.91;1743860;82;21104;-56
2022/05/11 02:03:29;;;;;;;3.92;2.10;;;;;;;7.76;50.92;100546.38;1743677;82;21107;-58
2022/05/11 02:08:45;;;;;;;4.15;2.35;;;;;;;7.75;51.12;100543.82;1744004;81;21163;-56
2022/05/11 02:11:14;;;;;;;8.38;2.52;;;;;;;7.74;51.20;100541.60;1744024;82;21104;-56
2022/05/11 02:13:45;;;;;;;7.17;2.40;;;;;;;7.69;51.32;100539.92;1743873;81;21139;-57
2022/05/11 02:16:14;;;;;;;5.70;2.37;;;;;;;7.66;51.54;100539.42;1744119;82;21554;-57
2022/05/11 02:18:43;;;;;;;4.25;2.72;;;;;;;7.60;51.67;100536.36;1743780;81;21103;-57
2022/05/11 02:21:14;;;;;;;7.20;3.12;;;;;;;7.60;51.71;100539.61;1743751;81;21174;-56
2022/05/11 02:23:44;;;;;;;6.00;3.05;;;;;;;7.61;51.71;100544.88;1743932;81;21520;-56
2022/05/11 02:26:13;;;;;;;5.33;2.83;;;;;;;7.63;51.70;100536.53;1743879;82;21120;-57
2022/05/11 02:28:42;;;;;;;13.00;2.70;;;;;;;7.57;51.89;100535.86;1743800;82;21123;-57
2022/05/11 02:31:11;;;;;;;5.95;2.70;;;;;;;7.53;52.15;100539.97;1743825;81;21139;-56
2022/05/11 02:33:40;;;;;;;7.70;2.98;;;;;;;7.50;52.38;100539.80;1754102;81;21127;-56
2022/05/11 02:36:10;;;;;;;6.53;3.20;;;;;;;7.47;52.37;100537.43;1757323;81;21166;-56
2022/05/11 02:38:43;;;;;;;7.28;2.83;;;;;;;7.47;52.41;100544.75;1757156;81;21115;-57
2022/05/11 02:41:13;;;;;;;6.83;3.45;;;;;;;7.47;52.48;100532.48;1757061;82;21644;-56
2022/05/11 02:43:42;;;;;;;4.72;2.80;;;;;;;7.46;52.55;100537.60;1757090;81;21123;-56
2022/05/11 02:46:12;;;;;;;7.08;3.12;;;;;;;7.46;52.55;100540.33;1757031;82;21154;-57
2022/05/11 02:48:45;;;;;;;6.60;3.30;;;;;;;7.45;52.58;100540.84;1757096;82;21161;-56
2022/05/11 02:51:14;;;;;;;5.55;3.15;;;;;;;7.46;52.64;100537.09;1757078;82;21173;-56
2022/05/11 02:53:45;;;;;;;5.60;3.15;;;;;;;7.47;52.71;100529.77;1757288;82;21588;-56
2022/05/11 02:56:14;;;;;;;7.22;3.30;;;;;;;7.48;52.69;100537.77;1757557;81;21577;-57
2022/05/11 02:58:43;;;;;;;6.70;3.15;;;;;;;7.51;52.69;100537.42;1757426;82;21727;-56
2022/05/11 03:01:13;;;;;;;6.60;3.70;;;;;;;7.54;52.70;100531.62;1757016;81;21194;-57
2022/05/11 03:03:41;;;;;;;6.72;3.30;;;;;;;7.52;52.78;100532.81;1706538;82;21197;-56
2022/05/11 03:06:10;;;;;;;9.05;3.45;;;;;;;7.51;52.99;100528.39;1757076;82;21146;-57
2022/05/11 03:08:40;;;;;;;10.45;3.80;;;;;;;7.50;53.06;100532.99;1757276;82;21118;-58
2022/05/11 03:11:08;;;;;;;5.83;3.17;;;;;;;7.50;53.01;100533.50;1756890;81;21158;-56
2022/05/11 03:13:37;;;;;;;11.85;4.10;;;;;;;7.49;53.09;100538.10;1757202;82;21207;-57
2022/05/11 03:16:07;;;;;;;8.88;4.10;;;;;;;7.47;53.40;100533.84;1757083;81;21539;-58
2022/05/11 03:18:38;;;;;;;7.45;3.55;;;;;;;7.46;53.56;100531.64;1757265;82;21531;-57
2022/05/11 03:21:07;;;;;;;9.03;4.20;;;;;;;7.48;53.78;100538.28;1756984;81;21146;-56
2022/05/11 03:23:36;;;;;;;10.45;4.28;;;;;;;7.51;53.90;100535.20;1757149;81;21617;-58
2022/05/11 03:26:05;;;;;;;7.87;3.80;;;;;;;7.58;53.72;100535.69;1757059;82;21398;-57
2022/05/11 03:28:34;;;;;;;8.90;3.95;;;;;;;7.67;53.45;100534.30;1757450;82;21198;-57
2022/05/11 03:31:03;;;;;;;11.12;4.33;;;;;;;7.73;53.32;100534.96;1757158;82;21539;-56
2022/05/11 03:36:19;;;;;;;9.00;4.00;;;;;;;7.78;53.57;100534.77;1757444;81;21158;-58
2022/05/11 03:38:48;;;;;;;11.40;4.42;;;;;;;7.82;53.63;100542.97;1757105;82;21115;-58
2022/05/11 03:41:18;;;;;;;7.03;4.03;;;;;;;7.84;53.70;100535.45;1740465;82;21178;-56
2022/05/11 03:43:49;;;;;;;11.08;4.90;;;;;;;7.88;53.56;100538.17;1757151;81;21087;-56
2022/05/11 03:46:17;;;;;;;12.50;4.97;;;;;;;7.94;53.50;100542.06;1757111;82;21114;-57
2022/05/11 03:48:47;;;;;;;9.95;5.20;;;;;;;8.04;53.39;100545.94;1757320;81;21229;-56
2022/05/11 03:51:16;;;;;;;13.83;4.95;;;;;;;8.09;53.19;100544.89;1757217;82;21107;-58
2022/05/11 03:53:45;;;;;;;12.93;5.03;;;;;;;8.15;53.34;100549.13;1757358;81;21139;-57
2022/05/11 03:56:13;;;;;;;11.83;5.12;;;;;;;8.22;52.94;100551.48;1757394;82;21122;-58
2022/05/11 03:58:42;;;;;;;10.55;5.12;;;;;;;8.33;52.60;100557.56;1757198;82;21174;-56
2022/05/11 04:01:12;;;;;;;9.70;4.90;;;;;;;8.42;51.94;100552.42;1757040;82;21202;-58
2022/05/11 04:03:41;;;;;;;11.10;5.03;;;;;;;8.54;51.41;100549.64;1757425;81;21115;-58
2022/05/11 04:06:10;;;;;;;11.43;5.28;;;;;;;8.65;50.91;100549.73;1757051;82;21132;-57
2022/05/11 04:08:42;;;;;;;9.98;5.20;;;;;;;8.73;51.13;100547.80;1757132;81;21139;-57
2022/05/11 04:11:12;;;;;;;14.18;5.17;;;;;;;8.81;51.17;100548.25;1757131;80;21546;-57
2022/05/11 04:13:41;;;;;;;11.45;5.47;;;;;;;8.88;50.74;100549.22;1757126;81;21138;-57
2022/05/11 04:16:10;;;;;;;11.03;5.00;;;;;;;8.99;50.69;100550.66;1757063;82;21550;-58
2022/05/11 04:18:41;;;;;;;10.32;5.00;;;;;;;9.07;51.01;100557.43;1757053;82;21531;-59
2022/05/11 04:21:10;;;;;;;14.00;5.25;;;;;;;9.15;50.55;100551.41;1757043;82;21547;-56
2022/05/11 04:23:40;;;;;;;11.00;5.35;;;;;;;9.26;50.01;100550.62;1757077;81;21147;-58
2022/05/11 04:26:11;;;;;;;12.18;5.10;;;;;;;9.37;49.35;100547.44;1757295;80;21201;-57
2022/05/11 04:28:43;;;;;;;9.93;4.30;;;;;;;9.47;49.33;100550.75;1757435;81;21110;-60
2022/05/11 04:31:12;;;;;;;10.38;4.25;;;;;;;9.59;49.57;100551.98;1757094;81;21154;-57
2022/05/11 04:33:41;;;;;;;6.65;3.67;;;;;;;9.70;48.86;100551.52;1750638;81;21151;-56
2022/05/11 04:36:10;;;;;;;9.43;4.03;;;;;;;9.80;47.93;100551.27;1744013;82;21159;-57
2022/05/11 04:38:39;;;;;;;11.90;3.05;;;;;;;9.93;46.59;100551.97;1743744;82;21524;-57
2022/05/11 04:41:07;;;;;;;7.80;2.12;;;;;;;10.07;46.33;100546.48;1743711;82;21524;-56
2022/05/11 04:43:37;;;;;;;7.30;3.00;;;;;;;10.25;43.19;100543.36;1743719;82;21536;-57
2022/05/11 04:46:05;;;;;;;7.47;2.12;;;;;;;10.47;42.63;100544.28;1743770;81;21191;-57
2022/05/11 04:48:36;;;;;;;3.77;1.70;;;;;;;10.64;41.14;100548.47;1743964;82;21198;-57
2022/05/11 04:51:05;;;;;;;6.35;2.15;;;;;;;10.83;40.26;100544.76;1743903;82;21119;-57
2022/05/11 04:53:34;;;;;;;5.08;1.70;;;;;;;11.00;39.53;100544.30;1743813;82;21621;-56
2022/05/11 04:56:04;;;;;;;4.55;1.60;;;;;;;11.19;39.04;100542.80;1744114;81;21174;-57
2022/05/11 04:58:32;;;;;;;5.87;1.77;;;;;;;11.36;38.25;100544.20;1743744;82;21562;-57
2022/05/11 05:01:02;;;;;;;5.55;2.15;;;;;;;11.55;37.73;100532.20;1743629;82;21103;-58
2022/05/11 05:03:30;;;;;;;7.50;2.30;;;;;;;11.69;37.94;100532.08;1743732;81;21135;-56
2022/05/11 05:06:00;;;;;;;4.08;1.60;;;;;;;11.82;37.89;100528.63;1743800;82;21182;-57
2022/05/11 05:08:29;;;;;;;5.28;2.00;;;;;;;11.95;37.12;100533.34;1743877;81;21112;-56
2022/05/11 05:10:58;;;;;;;3.75;1.50;;;;;;;12.07;37.54;100535.83;1743736;82;21170;-59
2022/05/11 05:13:27;;;;;;;6.70;2.00;;;;;;;12.23;36.91;100534.63;1743886;82;21582;-56
2022/05/11 05:15:57;;;;;;;6.40;2.85;;;;;;;12.45;35.85;100528.50;1744033;82;21552;-57
2022/05/11 05:18:26;;;;;;;5.78;1.60;;;;;;;12.69;35.12;100528.77;1744055;82;21111;-58
2022/05/11 05:21:00;;;;;;;3.37;1.85;;;;;;;12.98;34.83;100530.30;1743833;82;21158;-57
2022/05/11 05:23:26;;;;;;;2.83;1.47;;;;;;;13.29;34.09;100533.86;1708141;84;21182;-57
2022/05/11 05:25:55;;;;;;;3.87;1.80;;;;;;;13.65;32.95;100532.55;1743898;82;21194;-57
2022/05/11 05:31:14;;;;;;;3.98;1.82;;;;;;;14.04;32.32;100541.27;1744052;81;21123;-57
2022/05/11 05:33:42;;;;;;;5.20;1.57;;;;;;;14.09;32.11;100541.46;1743765;81;21175;-57
2022/05/11 05:36:11;;;;;;;3.70;1.62;;;;;;;14.03;31.88;100535.97;1744004;82;21115;-57
2022/05/11 05:38:41;;;;;;;4.28;2.08;;;;;;;13.91;32.13;100542.69;1743688;82;21552;-57
2022/05/11 05:41:12;;;;;;;7.00;1.77;;;;;;;13.81;32.10;100541.76;1743840;81;21202;-56
2022/05/11 05:43:41;;;;;;;4.03;1.52;;;;;;;13.74;32.36;100542.30;1744147;81;21155;-57
2022/05/11 05:46:10;;;;;;;5.58;1.70;;;;;;;13.74;32.38;100541.45;1743794;82;21120;-57
2022/05/11 05:48:40;;;;;;;5.80;1.80;;;;;;;13.76;32.59;100539.34;1743711;82;21103;-58
2022/05/11 05:51:11;;;;;;;5.12;1.72;;;;;;;13.85;32.36;100540.27;1743905;81;21186;-58
2022/05/11 05:53:42;;;;;;;13.72;2.60;;;;;;;13.99;32.27;100540.23;1743945;81;21543;-56
2022/05/11 05:56:12;;;;;;;13.88;2.12;;;;;;;14.07;32.31;100535.32;1743785;82;21123;-56
2022/05/11 05:58:40;;;;;;;6.37;1.80;;;;;;;14.13;32.46;100537.20;1743795;81;21091;-58
2022/05/11 06:01:09;;;;;;;4.87;1.80;;;;;;;14.19;31.69;100534.95;1744109;82;21135;-56
2022/05/11 06:03:39;;;;;;;2.70;1.40;;;;;;;14.20;31.56;100539.94;1743811;81;21155;-56
2022/05/11 06:06:09;;;;;;;5.65;1.90;;;;;;;14.18;31.28;100532.42;1743660;82;21171;-58
2022/05/11 06:08:39;;;;;;;4.47;1.60;;;;;;;14.18;31.43;100533.80;1743993;81;21642;-57
2022/05/11 06:11:08;;;;;;;2.67;1.35;;;;;;;14.22;31.58;100543.33;1744247;82;21123;-59
2022/05/11 06:13:38;;;;;;;3.08;1.57;;;;;;;14.37;31.61;100538.94;1743946;82;21143;-59
2022/05/11 06:16:13;;;;;;;3.72;1.40;;;;;;;14.66;31.19;100539.77;1743805;82;21223;-58
2022/05/11 06:18:48;;;;;;;5.65;3.02;;;;;;;15.07;30.65;100534.33;1743714;82;21099;-61
2022/05/11 06:21:24;;;;;;;4.55;1.70;;;;;;;15.44;30.25;100529.77;1743821;81;21602;-57
2022/05/11 06:23:54;;;;;;;4.20;2.10;;;;;;;15.80;30.05;100528.52;1744194;81;21120;-58
2022/05/11 06:26:24;;;;;;;4.65;2.10;;;;;;;16.20;29.91;100519.75;1733487;82;21131;-57
2022/05/11 06:28:56;;;;;;;4.67;1.30;;;;;;;16.65;29.27;100516.62;1742180;81;21162;-58
2022/05/11 06:31:26;;;;;;;5.10;1.80;;;;;;;17.07;28.02;100518.92;1743869;81;21167;-57
2022/05/11 06:33:57;;;;;;;3.30;1.25;;;;;;;17.57;26.85;100524.07;1745606;81;21095;-61
2022/05/11 06:36:27;;;;;;;8.58;1.62;;;;;;;17.94;26.00;100515.82;1749440;81;21213;-58
2022/05/11 06:38:57;;;;;;;3.62;1.80;;;;;;;18.19;25.86;100512.76;1749425;82;21610;-58
2022/05/11 06:41:28;;;;;;;4.20;1.80;;;;;;;18.42;25.69;100506.33;1749476;81;21579;-58
2022/05/11 06:43:57;;;;;;;5.87;1.65;;;;;;;18.66;25.15;100501.55;1749310;81;21127;-58
2022/05/11 06:46:26;;;;;;;5.45;2.22;;;;;;;18.85;25.02;100504.95;1749703;81;21123;-58
2022/05/11 06:48:57;;;;;;;4.28;1.52;;;;;;;19.04;24.60;100500.89;1749544;82;21134;-57
2022/05/11 06:51:29;;;;;;;2.90;1.42;;;;;;;19.29;23.42;100495.77;1749326;82;21150;-57
2022/05/11 06:59:33;;;;;;;8.03;2.08;;;;;;;19.83;22.63;100487.75;1749348;81;21735;-59
2022/05/11 07:02:04;;;;;;;7.70;2.25;;;;;;;19.92;22.27;100484.81;1749379;82;21123;-57
2022/05/11 07:04:35;;;;;;;3.15;1.82;;;;;;;20.01;22.15;100487.99;1749446;82;21278;-57
2022/05/11 07:07:05;;;;;;;3.87;1.57;;;;;;;20.11;22.66;100483.11;1749246;81;21142;-57
2022/05/11 07:09:34;;;;;;;6.12;1.70;;;;;;;20.24;22.30;100488.31;1749242;81;21181;-58
2022/05/11 07:12:17;;;;;;;7.25;2.20;;;;;;;20.30;22.12;100472.52;1749368;81;21198;-58
2022/05/11 07:14:52;;;;;;;7.15;1.70;;;;;;;20.41;22.40;100479.38;1749318;82;21134;-57
2022/05/11 07:17:38;;;;;;;4.53;1.85;;;;;;;20.73;22.04;100471.64;1749337;80;21099;-59
2022/05/11 07:20:19;;;;;;;4.47;1.90;;;;;;;20.96;22.14;100479.70;1749616;82;21150;-59
2022/05/11 07:22:51;;;;;;;6.90;1.67;;;;;;;21.23;21.59;100459.33;1749356;80;21198;-60
2022/05/11 07:25:27;;;;;;;3.10;1.77;;;;;;;21.32;21.55;100461.91;1749501;82;21091;-58
2022/05/11 07:27:53;;;;;;;3.33;1.85;;;;;;;21.40;21.45;100453.05;1710289;84;21162;-57
2022/05/11 07:30:26;;;;;;;6.20;2.08;;;;;;;21.48;21.28;100462.34;1749303;80;21568;-57
2022/05/11 07:32:57;;;;;;;6.55;2.12;;;;;;;21.36;21.32;100463.06;1748119;81;21146;-60
2022/05/11 07:35:26;;;;;;;4.45;2.10;;;;;;;21.38;21.40;100458.05;1744902;82;21162;-58
2022/05/11 07:37:55;;;;;;;5.85;2.60;;;;;;;21.53;21.01;100465.16;1743996;81;21167;-57
2022/05/11 07:40:26;;;;;;;6.90;2.62;;;;;;;21.69;20.46;100464.15;1743647;81;21213;-58
2022/05/11 07:42:55;;;;;;;5.33;2.58;;;;;;;21.83;20.17;100463.11;1743795;81;21563;-58
2022/05/11 07:45:24;;;;;;;7.12;2.42;;;;;;;21.89;19.80;100451.42;1743745;81;21539;-56
2022/05/11 07:47:52;;;;;;;4.78;2.40;;;;;;;21.83;19.68;100443.03;1743918;82;21112;-58
2022/05/11 07:50:22;;;;;;;6.45;2.90;;;;;;;21.75;20.25;100442.70;1743885;81;21512;-59
2022/05/11 07:52:54;;;;;;;8.08;3.12;;;;;;;21.77;19.75;100439.09;1743323;81;21584;-58
2022/05/11 07:55:25;;;;;;;7.83;3.80;;;;;;;21.87;19.91;100435.52;1743664;81;21545;-58
2022/05/11 08:00:44;;;;;;;7.45;3.72;;;;;;;22.10;19.86;100439.27;1747052;81;21087;-59
2022/05/11 08:03:13;;;;;;;9.18;4.03;;;;;;;22.18;19.49;100441.57;1743831;81;21162;-59
2022/05/11 08:05:44;;;;;;;11.10;4.53;;;;;;;22.09;19.55;100446.80;1719619;82;21126;-59
2022/05/11 08:08:13;;;;;;;8.28;4.33;;;;;;;22.12;19.48;100447.69;1774102;81;21551;-57
2022/05/11 08:10:45;;;;;;;11.45;4.87;;;;;;;22.04;19.55;100437.58;1774327;81;21143;-59
2022/05/11 08:13:14;;;;;;;9.33;5.15;;;;;;;22.08;19.42;100438.70;1774129;81;21195;-58
2022/05/11 08:15:49;;;;;;;13.65;4.92;;;;;;;22.12;19.52;100426.76;1743927;81;21178;-58
2022/05/11 08:18:18;;;;;;;13.48;5.55;;;;;;;22.16;19.49;100422.86;1743613;82;21116;-57
2022/05/11 08:20:47;;;;;;;14.95;6.83;;;;;;;22.35;19.74;100428.23;1743515;81;21127;-57
2022/05/11 08:23:16;;;;;;;13.05;6.70;;;;;;;22.50;19.59;100434.41;1743719;82;21593;-58
2022/05/11 08:25:46;;;;;;;12.80;6.75;;;;;;;22.56;19.71;100427.72;1743540;82;21633;-57
2022/05/11 08:28:21;;;;;;;11.40;6.87;;;;;;;22.58;19.47;100427.44;1743777;82;21158;-57
2022/05/11 08:33:40;;;;;;;12.63;6.85;;;;;;;22.56;19.73;100429.66;1774368;81;21109;-58
2022/05/11 08:36:16;;;;;;;14.58;6.75;;;;;;;22.67;19.42;100421.59;1779811;80;21147;-58
2022/05/11 08:38:48;;;;;;;13.88;6.72;;;;;;;22.86;19.37;100421.39;1782391;80;21155;-59
2022/05/11 08:41:47;;;;;;;12.80;6.58;;;;;;;22.86;18.89;100421.39;1782657;80;21112;-57
2022/05/11 08:44:23;;;;;;;11.65;5.17;;;;;;;22.67;19.54;100424.38;1782585;80;21182;-58
2022/05/11 08:47:13;;;;;;;12.10;5.75;;;;;;;22.62;19.50;100414.04;1782589;79;21126;-57
2022/05/11 08:49:54;;;;;;;17.50;6.92;;;;;;;22.65;19.65;100413.48;1782677;79;21166;-56
2022/05/11 08:52:56;;;;;;;11.40;6.40;;;;;;;22.69;19.49;100418.80;1782718;80;21575;-58
2022/05/11 08:55:49;;;;;;;15.90;5.70;;;;;;;22.77;19.25;100416.04;1782447;80;21167;-57
2022/05/11 08:58:41;;;;;;;9.70;5.30;;;;;;;22.71;19.03;100415.16;1771089;79;21114;-58
2022/05/11 09:01:18;;;;;;;12.25;4.85;;;;;;;22.46;19.19;100402.56;1764286;81;21110;-57
2022/05/11 09:03:53;;;;;;;10.95;5.15;;;;;;;22.26;19.54;100402.52;1764799;81;21142;-58
2022/05/11 09:06:24;;;;;;;9.75;5.30;;;;;;;22.31;19.23;100391.36;1806003;79;21115;-57
2022/05/11 09:08:56;;;;;;;12.63;5.45;;;;;;;22.22;19.47;100390.22;1748131;82;21640;-57
2022/05/11 09:11:30;;;;;;;12.55;5.70;;;;;;;22.10;19.61;100384.86;1748219;82;21531;-59
2022/05/11 09:14:00;;;;;;;13.25;5.90;;;;;;;21.98;20.51;100382.83;1751093;82;21558;-57
2022/05/11 09:16:47;;;;;;;15.90;5.22;;;;;;;21.91;20.15;100384.48;1748463;82;21111;-57
2022/05/11 09:19:23;;;;;;;14.05;5.72;;;;;;;21.71;20.58;100385.78;1752044;82;21198;-57
2022/05/11 09:21:56;;;;;;;16.65;7.20;;;;;;;21.38;20.34;100378.05;1745372;82;21126;-60
2022/05/11 09:24:31;;;;;;;18.65;8.63;;;;;;;21.19;20.66;100372.05;1751825;82;21146;-59
2022/05/11 09:27:10;;;;;;;18.10;9.23;;;;;;;21.18;20.61;100380.13;1748178;82;21152;-57
2022/05/11 09:29:43;;;;;;;16.62;8.60;;;;;;;21.09;20.47;100385.08;1740614;82;21023;-59
2022/05/11 09:32:37;;;;;;;17.25;9.03;;;;;;;20.91;20.83;100380.76;1722570;82;21070;-58
2022/05/11 09:35:25;;;;;;;17.23;7.83;;;;;;;20.77;20.83;100378.11;1767671;81;21059;-58
2022/05/11 09:38:07;;;;;;;22.58;7.95;;;;;;;20.69;20.78;100377.20;1764542;81;21072;-59
2022/05/11 09:41:01;;;;;;;14.63;7.67;;;;;;;20.63;20.64;100375.48;1753026;81;21051;-58
2022/05/11 09:43:46;;;;;;;15.88;7.35;;;;;;;20.59;20.41;100369.59;1764522;81;21039;-57
2022/05/11 09:46:29;;;;;;;15.23;6.62;;;;;;;20.53;20.22;100358.13;1764733;81;21155;-59
2022/05/11 09:49:21;;;;;;;14.00;6.28;;;;;;;20.45;20.57;100360.84;1764256;81;21063;-57
2022/05/11 09:51:57;;;;;;;13.98;6.10;;;;;;;20.39;20.72;100363.28;1765004;81;21474;-58
2022/05/11 09:54:51;;;;;;;16.85;7.00;;;;;;;20.37;20.81;100369.64;1764726;80;21047;-59
2022/05/11 09:57:27;;;;;;;13.88;6.80;;;;;;;20.36;20.74;100366.56;1764830;81;20976;-58
2022/05/11 10:00:22;;;;;;;13.50;5.65;;;;;;;20.30;21.23;100361.21;1762232;79;21019;-58
2022/05/11 10:02:56;;;;;;;14.55;5.17;;;;;;;20.22;21.36;100354.18;1736490;81;21478;-57
2022/05/11 10:05:40;;;;;;;8.50;4.20;;;;;;;20.18;21.08;100355.25;1781921;79;21127;-59
2022/05/11 10:08:30;;;;;;;9.05;4.15;;;;;;;20.16;20.81;100356.06;1812729;79;21004;-58
2022/05/11 10:11:18;;;;;;;9.38;4.00;;;;;;;20.16;21.04;100344.94;1740960;82;21106;-59
2022/05/11 10:21:50;;;;;;;6.87;3.35;;;;;;;20.23;20.72;100350.30;1718346;82;21040;-59
2022/05/11 10:23:18;;;;;;;6.60;3.02;;;;;;;20.26;20.21;100340.87;1751708;82;21023;-58
2022/05/11 10:25:49;;;;;;;6.78;2.50;;;;;;;20.21;20.22;100342.21;1740844;82;21036;-58
2022/05/11 10:28:53;;;;;;;9.60;3.02;;;;;;;20.21;20.36;100338.59;1725231;82;21032;-59
2022/05/11 10:31:38;;;;;;;8.58;2.70;;;;;;;20.17;20.50;100324.91;1741309;82;21059;-57
2022/05/11 10:34:40;;;;;;;6.30;3.00;;;;;;;20.17;20.87;100331.87;1751399;82;21027;-57
2022/05/11 10:37:17;;;;;;;5.85;2.47;;;;;;;20.14;20.89;100324.86;1741035;82;21067;-58
2022/05/11 10:40:11;;;;;;;7.65;2.80;;;;;;;20.13;21.01;100321.78;1752122;82;21055;-57
2022/05/11 10:43:04;;;;;;;4.60;2.55;;;;;;;20.15;21.03;100318.73;1740973;82;21464;-57
2022/05/11 10:45:38;;;;;;;5.33;2.58;;;;;;;20.12;20.98;100310.38;1751832;82;21063;-58
2022/05/11 10:48:47;;;;;;;7.75;2.95;;;;;;;20.10;21.23;100312.58;1741046;82;21035;-58
2022/05/11 10:51:40;;;;;;;4.45;2.70;;;;;;;20.11;21.37;100307.30;1751988;82;21464;-59
2022/05/11 10:54:53;;;;;;;7.47;3.22;;;;;;;20.24;21.13;100304.67;1741256;82;21074;-58
2022/05/11 10:58:04;;;;;;;9.05;2.95;;;;;;;20.23;21.33;100295.48;1751917;82;20988;-57
2022/05/11 11:00:37;;;;;;;13.53;3.42;;;;;;;20.21;21.51;100292.68;1711027;84;21504;-58
2022/05/11 11:03:36;;;;;;;5.30;2.65;;;;;;;20.17;21.18;100299.33;1757267;80;21000;-58
2022/05/11 11:09:31;;;;;;;5.55;2.70;;;;;;;20.21;21.68;100302.42;1767288;81;21035;-59
2022/05/11 11:12:40;;;;;;;4.90;2.60;;;;;;;20.23;21.64;100289.92;1767336;81;21090;-57
2022/05/11 11:15:14;;;;;;;9.55;3.35;;;;;;;20.18;21.39;100298.22;1767373;81;21020;-58
2022/05/11 11:17:46;;;;;;;7.67;3.08;;;;;;;20.11;22.07;100292.00;1706445;83;21472;-58
2022/05/11 11:20:17;;;;;;;6.65;2.72;;;;;;;20.13;21.61;100293.97;1706592;84;21063;-58
2022/05/11 11:23:19;;;;;;;5.00;2.58;;;;;;;20.14;21.77;100293.41;1706410;84;21072;-58
2022/05/11 11:25:54;;;;;;;5.95;2.70;;;;;;;20.22;21.59;100296.59;1706607;82;21506;-59
2022/05/11 11:28:42;;;;;;;6.03;2.52;;;;;;;20.30;21.75;100290.25;1706694;84;21042;-59
2022/05/11 11:31:14;;;;;;;8.63;3.15;;;;;;;20.23;21.90;100280.73;1706673;84;21058;-57
2022/05/11 11:34:06;;;;;;;6.03;2.95;;;;;;;20.18;22.71;100277.91;1706487;84;21050;-59
2022/05/11 11:36:40;;;;;;;5.50;3.00;;;;;;;20.23;22.29;100284.91;1754795;80;21071;-57
2022/05/11 11:39:14;;;;;;;9.48;3.58;;;;;;;20.30;22.31;100287.47;1769319;81;21463;-59
2022/05/11 11:41:50;;;;;;;7.85;2.83;;;;;;;20.30;22.63;100281.36;1769328;81;21058;-57
2022/05/11 11:44:31;;;;;;;4.20;2.37;;;;;;;20.35;22.51;100282.80;1769219;81;21054;-57
2022/05/11 11:47:01;;;;;;;11.00;2.70;;;;;;;20.38;22.51;100276.69;1768886;81;21054;-59
2022/05/11 11:49:36;;;;;;;6.47;2.60;;;;;;;20.37;22.73;100272.23;1749079;81;21058;-59
2022/05/11 11:52:07;;;;;;;10.58;3.25;;;;;;;20.39;22.29;100270.05;1769346;81;21094;-58
2022/05/11 11:54:43;;;;;;;8.30;2.95;;;;;;;20.37;22.58;100265.27;1774987;81;21075;-57
2022/05/11 11:57:26;;;;;;;5.12;2.52;;;;;;;20.38;22.63;100272.52;1769445;81;21337;-58
2022/05/11 12:00:21;;;;;;;3.50;2.55;;;;;;;20.35;22.45;100262.47;1743836;81;21444;-58
2022/05/11 12:02:50;;;;;;;9.23;2.50;;;;;;;20.32;22.62;100256.89;1739270;81;21453;-58
2022/05/11 12:05:48;;;;;;;4.87;2.80;;;;;;;20.36;22.46;100252.46;1773920;81;21012;-58
2022/05/11 12:17:01;;;;;;;9.90;3.47;;;;;;;20.41;22.40;100233.61;1773921;81;21051;-58
2022/05/11 12:19:38;;;;;;;6.78;2.80;;;;;;;20.47;22.42;100237.55;1774155;81;21000;-56
2022/05/11 12:22:19;;;;;;;6.55;3.20;;;;;;;20.56;21.78;100242.91;1774334;81;21032;-58
2022/05/11 12:24:59;;;;;;;4.87;2.58;;;;;;;20.59;21.49;100233.19;1774579;81;21088;-57
2022/05/11 12:27:36;;;;;;;10.40;3.45;;;;;;;20.57;21.84;100229.83;1774230;80;21096;-59
2022/05/11 12:30:18;;;;;;;7.85;3.05;;;;;;;20.60;21.72;100229.30;1774534;81;21047;-58
2022/05/11 12:32:57;;;;;;;5.67;3.08;;;;;;;20.63;21.89;100225.97;1774482;80;21035;-57
2022/05/11 12:35:35;;;;;;;13.55;4.22;;;;;;;20.69;21.67;100229.63;1774347;80;21056;-57
2022/05/11 12:38:07;;;;;;;8.18;3.12;;;;;;;20.67;21.75;100222.09;1701703;84;21067;-57
2022/05/11 12:40:48;;;;;;;6.10;3.15;;;;;;;20.66;21.71;100224.59;1701530;84;21087;-57